Mc Kenzie, Alabama
Current Conditions -  °F | °C
As of 6:53 AM on Monday 22 Dec 2014 (Local Time) from KGZH Reporting Station
Haze Haze  
Wind Chill: 54°   Ceiling: 200
Heat Index: 54°   Visibility: 5mi
Dew Point: 52°   Wind: 7mph
Humidity: 93%   Direction: 80°E
Pressure: 29.94"   Gusts: NA
Location:  31.548°N, 86.7591°W
Report Text: KGZH 221253Z AUTO 08006KT 5SM BR OVC002 12/11 A2994 RMK AO2 SLP139 T01220111
Loading
Personal Weather Stations






























Interactive Weather Map New forecast layout! Learn more

10-Day Weather Forecast

Advertisements
Track Severe Weather on mobile